Stowe, Vermont
Current Conditions -  °F | °C
As of 6:51 PM on Saturday 22 Nov 2014 (Local Time) from KMPV Reporting Station
Overcast Overcast  
Wind Chill: 30°   Ceiling: 2800
Heat Index: 38°   Visibility: 10mi
Dew Point: 27°   Wind: 12mph
Humidity: 65%   Direction: 190°S
Pressure: 29.96"   Gusts: 20mph
Location:  44.47°N, 72.68°W
Report Text: KMPV 222351Z AUTO 19010G17KT 10SM OVC028 03/M03 A2996 RMK AO2 SLP161 T00331028 10033 20006 56014
Loading
Personal Weather Stations






























Interactive Weather Map New forecast layout! Learn more

10-Day Weather Forecast

Advertisements
Track Severe Weather on mobile